sensor_id;sensor_type;location;lat;lon;timestamp;pressure;altitude;pressure_sealevel;temperature;humidity
9110;BME280;4590;51.462;6.692;2023-05-21T00:02:08;101546.56;;;16.42;57.19
9110;BME280;4590;51.462;6.692;2023-05-21T00:04:37;101538.06;;;16.38;57.19
9110;BME280;4590;51.462;6.692;2023-05-21T00:07:05;101534.47;;;16.38;57.55
9110;BME280;4590;51.462;6.692;2023-05-21T00:09:33;101529.25;;;16.36;57.71
9110;BME280;4590;51.462;6.692;2023-05-21T00:11:58;101540.69;;;16.35;57.63
9110;BME280;4590;51.462;6.692;2023-05-21T00:14:24;101528.28;;;16.32;57.68
9110;BME280;4590;51.462;6.692;2023-05-21T00:16:50;101528.59;;;16.31;57.79
9110;BME280;4590;51.462;6.692;2023-05-21T00:19:18;101529.91;;;16.33;57.59
9110;BME280;4590;51.462;6.692;2023-05-21T00:21:44;101525.31;;;16.29;57.81
9110;BME280;4590;51.462;6.692;2023-05-21T00:24:10;101519.59;;;16.25;57.94
9110;BME280;4590;51.462;6.692;2023-05-21T00:26:36;101522.22;;;16.30;58.03
9110;BME280;4590;51.462;6.692;2023-05-21T00:29:03;101521.09;;;16.31;57.61
9110;BME280;4590;51.462;6.692;2023-05-21T00:31:29;101525.66;;;16.36;57.71
9110;BME280;4590;51.462;6.692;2023-05-21T00:33:55;101513.41;;;16.37;57.75
9110;BME280;4590;51.462;6.692;2023-05-21T00:36:20;101523.84;;;16.40;57.64
9110;BME280;4590;51.462;6.692;2023-05-21T00:38:48;101521.25;;;16.43;57.99
9110;BME280;4590;51.462;6.692;2023-05-21T00:41:13;101519.28;;;16.35;59.00
9110;BME280;4590;51.462;6.692;2023-05-21T00:43:39;101518.97;;;16.45;57.78
9110;BME280;4590;51.462;6.692;2023-05-21T00:46:32;101510.78;;;16.40;58.33
9110;BME280;4590;51.462;6.692;2023-05-21T00:48:58;101514.53;;;16.44;57.88
9110;BME280;4590;51.462;6.692;2023-05-21T00:51:24;101524.50;;;16.45;58.13
9110;BME280;4590;51.462;6.692;2023-05-21T00:53:55;101510.47;;;16.42;58.16
9110;BME280;4590;51.462;6.692;2023-05-21T01:22:54;101493.31;;;16.31;58.86
9110;BME280;4590;51.462;6.692;2023-05-21T01:25:21;101489.22;;;16.29;58.84
9110;BME280;4590;51.462;6.692;2023-05-21T01:27:48;101488.41;;;16.28;58.97
9110;BME280;4590;51.462;6.692;2023-05-21T01:30:19;101482.34;;;16.26;58.91
9110;BME280;4590;51.462;6.692;2023-05-21T01:35:26;101480.72;;;16.25;58.99
9110;BME280;4590;51.462;6.692;2023-05-21T01:40:59;101491.00;;;16.25;59.10
9110;BME280;4590;51.462;6.692;2023-05-21T01:43:35;101485.78;;;16.23;59.19
9110;BME280;4590;51.462;6.692;2023-05-21T01:46:04;101486.59;;;16.24;59.29
9110;BME280;4590;51.462;6.692;2023-05-21T01:48:31;101482.53;;;16.21;59.37
9110;BME280;4590;51.462;6.692;2023-05-21T01:51:00;101479.75;;;16.21;59.19
9110;BME280;4590;51.462;6.692;2023-05-21T01:53:26;101482.53;;;16.21;59.05
9110;BME280;4590;51.462;6.692;2023-05-21T01:55:53;101478.13;;;16.20;59.13
9110;BME280;4590;51.462;6.692;2023-05-21T01:58:21;101486.09;;;16.22;59.22
9110;BME280;4590;51.462;6.692;2023-05-21T02:00:48;101477.78;;;16.22;59.20
9110;BME280;4590;51.462;6.692;2023-05-21T02:03:18;101480.09;;;16.20;59.20
9110;BME280;4590;51.462;6.692;2023-05-21T02:05:44;101474.53;;;16.20;59.22
9110;BME280;4590;51.462;6.692;2023-05-21T02:08:10;101479.28;;;16.19;59.49
9110;BME280;4590;51.462;6.692;2023-05-21T02:10:37;101468.81;;;16.16;59.33
9110;BME280;4590;51.462;6.692;2023-05-21T02:13:04;101472.09;;;16.18;59.28
9110;BME280;4590;51.462;6.692;2023-05-21T02:15:33;101472.41;;;16.17;59.33
9110;BME280;4590;51.462;6.692;2023-05-21T02:17:59;101468.81;;;16.16;59.52
9110;BME280;4590;51.462;6.692;2023-05-21T02:20:25;101473.88;;;16.14;59.48
9110;BME280;4590;51.462;6.692;2023-05-21T02:22:50;101475.81;;;16.13;59.77
9110;BME280;4590;51.462;6.692;2023-05-21T02:25:17;101475.81;;;16.13;59.38
9110;BME280;4590;51.462;6.692;2023-05-21T02:27:44;101482.84;;;16.11;59.82
9110;BME280;4590;51.462;6.692;2023-05-21T02:30:13;101476.47;;;16.10;59.53
9110;BME280;4590;51.462;6.692;2023-05-21T02:32:40;101466.50;;;16.09;59.77
9110;BME280;4590;51.462;6.692;2023-05-21T02:35:08;101480.88;;;16.11;59.40
9110;BME280;4590;51.462;6.692;2023-05-21T02:37:35;101484.47;;;16.12;59.50
9110;BME280;4590;51.462;6.692;2023-05-21T02:40:03;101473.19;;;16.08;59.62
9110;BME280;4590;51.462;6.692;2023-05-21T02:42:30;101480.38;;;16.09;59.70
9110;BME280;4590;51.462;6.692;2023-05-21T02:44:56;101478.75;;;16.00;60.50
9110;BME280;4590;51.462;6.692;2023-05-21T02:47:27;101482.03;;;16.02;59.41
9110;BME280;4590;51.462;6.692;2023-05-21T02:49:53;101477.13;;;15.99;59.75
9110;BME280;4590;51.462;6.692;2023-05-21T02:52:19;101471.91;;;15.97;59.86
9110;BME280;4590;51.462;6.692;2023-05-21T02:54:48;101479.22;;;15.93;59.99
9110;BME280;4590;51.462;6.692;2023-05-21T02:57:15;101476.94;;;15.87;60.28
9110;BME280;4590;51.462;6.692;2023-05-21T02:59:42;101467.00;;;15.86;60.21
9110;BME280;4590;51.462;6.692;2023-05-21T03:02:10;101464.22;;;15.86;60.54
9110;BME280;4590;51.462;6.692;2023-05-21T03:04:36;101466.66;;;15.87;60.39
9110;BME280;4590;51.462;6.692;2023-05-21T03:07:13;101455.88;;;15.86;60.53
9110;BME280;4590;51.462;6.692;2023-05-21T03:09:40;101456.38;;;15.88;60.53
9110;BME280;4590;51.462;6.692;2023-05-21T03:12:09;101464.22;;;15.86;60.45
9110;BME280;4590;51.462;6.692;2023-05-21T03:14:34;101456.34;;;15.70;61.88
9110;BME280;4590;51.462;6.692;2023-05-21T03:17:19;101458.00;;;15.71;60.97
9110;BME280;4590;51.462;6.692;2023-05-21T03:19:44;101452.25;;;15.76;60.66
9110;BME280;4590;51.462;6.692;2023-05-21T03:22:10;101447.38;;;15.73;60.59
9110;BME280;4590;51.462;6.692;2023-05-21T03:24:41;101448.34;;;15.69;61.04
9110;BME280;4590;51.462;6.692;2023-05-21T03:27:07;101454.91;;;15.73;60.65
9110;BME280;4590;51.462;6.692;2023-05-21T03:29:33;101453.72;;;15.65;61.34
9110;BME280;4590;51.462;6.692;2023-05-21T03:31:59;101454.88;;;15.64;61.24
9110;BME280;4590;51.462;6.692;2023-05-21T03:34:25;101450.13;;;15.65;61.21
9110;BME280;4590;51.462;6.692;2023-05-21T03:36:51;101450.78;;;15.62;61.50
9110;BME280;4590;51.462;6.692;2023-05-21T03:39:20;101444.72;;;15.60;61.78
9110;BME280;4590;51.462;6.692;2023-05-21T03:41:46;101438.22;;;15.64;61.12
9110;BME280;4590;51.462;6.692;2023-05-21T03:44:11;101441.63;;;15.61;61.34
9110;BME280;4590;51.462;6.692;2023-05-21T03:46:37;101441.63;;;15.61;61.56
9110;BME280;4590;51.462;6.692;2023-05-21T03:49:07;101436.88;;;15.53;61.87
9110;BME280;4590;51.462;6.692;2023-05-21T03:51:33;101443.59;;;15.61;61.74
9110;BME280;4590;51.462;6.692;2023-05-21T03:53:59;101438.34;;;15.59;61.83
9110;BME280;4590;51.462;6.692;2023-05-21T03:56:25;101443.06;;;15.50;63.02
9110;BME280;4590;51.462;6.692;2023-05-21T03:58:53;101449.91;;;15.53;61.53
9110;BME280;4590;51.462;6.692;2023-05-21T04:01:20;101446.00;;;15.54;61.69
9110;BME280;4590;51.462;6.692;2023-05-21T04:03:45;101446.31;;;15.52;61.93
9110;BME280;4590;51.462;6.692;2023-05-21T04:06:11;101455.59;;;15.48;62.09
9110;BME280;4590;51.462;6.692;2023-05-21T04:08:37;101453.00;;;15.51;61.98
9110;BME280;4590;51.462;6.692;2023-05-21T04:11:03;101449.72;;;15.49;61.82
9110;BME280;4590;51.462;6.692;2023-05-21T04:13:28;101456.28;;;15.53;61.83
9110;BME280;4590;51.462;6.692;2023-05-21T04:15:54;101458.22;;;15.53;62.15
9110;BME280;4590;51.462;6.692;2023-05-21T04:18:19;101454.03;;;15.55;62.00
9110;BME280;4590;51.462;6.692;2023-05-21T04:20:48;101451.25;;;15.55;62.09
9110;BME280;4590;51.462;6.692;2023-05-21T04:23:14;101464.56;;;15.44;63.44
9110;BME280;4590;51.462;6.692;2023-05-21T04:25:40;101464.81;;;15.57;62.11
9110;BME280;4590;51.462;6.692;2023-05-21T04:28:05;101454.53;;;15.57;62.22
9110;BME280;4590;51.462;6.692;2023-05-21T04:30:31;101450.13;;;15.56;62.11
9110;BME280;4590;51.462;6.692;2023-05-21T04:33:29;101452.38;;;15.54;62.14
9110;BME280;4590;51.462;6.692;2023-05-21T04:35:54;101463.19;;;15.64;61.89
9110;BME280;4590;51.462;6.692;2023-05-21T04:38:20;101469.38;;;15.61;61.94
9110;BME280;4590;51.462;6.692;2023-05-21T04:40:49;101456.97;;;15.59;62.13
9110;BME280;4590;51.462;6.692;2023-05-21T04:43:17;101467.41;;;15.62;62.19
9110;BME280;4590;51.462;6.692;2023-05-21T04:45:55;101461.53;;;15.63;62.10
9110;BME280;4590;51.462;6.692;2023-05-21T04:48:25;101460.91;;;15.66;62.33
9110;BME280;4590;51.462;6.692;2023-05-21T04:50:51;101458.63;;;15.68;62.22
9110;BME280;4590;51.462;6.692;2023-05-21T04:53:18;101469.72;;;15.68;62.22
9110;BME280;4590;51.462;6.692;2023-05-21T04:55:44;101468.28;;;15.71;62.47
9110;BME280;4590;51.462;6.692;2023-05-21T04:58:11;101475.28;;;15.68;62.50
9110;BME280;4590;51.462;6.692;2023-05-21T05:00:38;101462.22;;;15.69;62.50
9110;BME280;4590;51.462;6.692;2023-05-21T05:03:04;101476.09;;;15.69;62.43
9110;BME280;4590;51.462;6.692;2023-05-21T05:05:30;101474.63;;;15.71;62.55
9110;BME280;4590;51.462;6.692;2023-05-21T05:07:58;101472.38;;;15.73;62.37
9110;BME280;4590;51.462;6.692;2023-05-21T05:10:24;101464.84;;;15.74;62.45
9110;BME280;4590;51.462;6.692;2023-05-21T05:12:50;101463.88;;;15.78;62.52
9110;BME280;4590;51.462;6.692;2023-05-21T05:15:16;101461.09;;;15.78;62.45
9110;BME280;4590;51.462;6.692;2023-05-21T05:17:42;101465.50;;;15.79;62.48
9110;BME280;4590;51.462;6.692;2023-05-21T05:20:09;101464.34;;;15.81;62.36
9110;BME280;4590;51.462;6.692;2023-05-21T05:22:35;101457.34;;;15.83;62.53
9110;BME280;4590;51.462;6.692;2023-05-21T05:25:01;101462.56;;;15.85;62.30
9110;BME280;4590;51.462;6.692;2023-05-21T05:27:26;101454.44;;;15.88;62.33
9110;BME280;4590;51.462;6.692;2023-05-21T05:29:52;101454.75;;;15.87;62.48
9110;BME280;4590;51.462;6.692;2023-05-21T05:32:18;101446.91;;;15.89;62.60
9110;BME280;4590;51.462;6.692;2023-05-21T05:34:48;101457.53;;;15.87;62.71
9110;BME280;4590;51.462;6.692;2023-05-21T05:37:14;101449.53;;;15.85;62.43
9110;BME280;4590;51.462;6.692;2023-05-21T05:39:40;101447.56;;;15.86;62.48
9110;BME280;4590;51.462;6.692;2023-05-21T05:42:08;101455.03;;;15.76;62.85
9110;BME280;4590;51.462;6.692;2023-05-21T05:44:34;101456.84;;;15.81;62.39
9110;BME280;4590;51.462;6.692;2023-05-21T05:47:00;101456.84;;;15.81;62.75
9110;BME280;4590;51.462;6.692;2023-05-21T05:49:25;101452.75;;;15.78;62.91
9110;BME280;4590;51.462;6.692;2023-05-21T05:51:51;101460.59;;;15.76;62.81
9110;BME280;4590;51.462;6.692;2023-05-21T05:54:17;101458.63;;;15.77;62.83
9110;BME280;4590;51.462;6.692;2023-05-21T05:56:43;101449.34;;;15.82;62.50
9110;BME280;4590;51.462;6.692;2023-05-21T05:59:09;101455.88;;;15.86;63.03
9110;BME280;4590;51.462;6.692;2023-05-21T06:01:35;101439.88;;;15.91;62.67
9110;BME280;4590;51.462;6.692;2023-05-21T06:04:00;101450.50;;;15.98;62.66
9110;BME280;4590;51.462;6.692;2023-05-21T06:06:26;101457.22;;;16.05;62.48
9110;BME280;4590;51.462;6.692;2023-05-21T06:08:52;101448.72;;;16.10;62.82
9110;BME280;4590;51.462;6.692;2023-05-21T06:11:17;101440.69;;;16.09;62.98
9110;BME280;4590;51.462;6.692;2023-05-21T06:13:53;101442.03;;;16.20;62.80
9110;BME280;4590;51.462;6.692;2023-05-21T06:16:19;101440.06;;;16.29;62.54
9110;BME280;4590;51.462;6.692;2023-05-21T06:18:46;101443.97;;;16.37;62.46
9110;BME280;4590;51.462;6.692;2023-05-21T06:21:11;101440.69;;;16.43;62.40
9110;BME280;4590;51.462;6.692;2023-05-21T06:23:37;101439.38;;;16.49;61.99
9110;BME280;4590;51.462;6.692;2023-05-21T06:26:03;101438.72;;;16.53;62.02
9110;BME280;4590;51.462;6.692;2023-05-21T06:28:29;101433.97;;;16.53;61.93
9110;BME280;4590;51.462;6.692;2023-05-21T06:30:55;101431.69;;;16.46;61.67
9110;BME280;4590;51.462;6.692;2023-05-21T06:33:21;101436.94;;;16.39;61.81
9110;BME280;4590;51.462;6.692;2023-05-21T06:35:47;101434.03;;;16.19;62.89
9110;BME280;4590;51.462;6.692;2023-05-21T06:38:12;101435.28;;;16.38;62.07
9110;BME280;4590;51.462;6.692;2023-05-21T06:40:40;101433.50;;;16.42;62.13
9110;BME280;4590;51.462;6.692;2023-05-21T06:43:08;101424.69;;;16.49;62.01
9110;BME280;4590;51.462;6.692;2023-05-21T06:45:33;101426.59;;;16.57;61.85
9110;BME280;4590;51.462;6.692;2023-05-21T06:47:59;101420.38;;;16.69;61.79
9110;BME280;4590;51.462;6.692;2023-05-21T06:50:24;101416.13;;;16.80;61.75
9110;BME280;4590;51.462;6.692;2023-05-21T06:52:50;101415.13;;;16.84;61.68
9110;BME280;4590;51.462;6.692;2023-05-21T06:55:16;101417.22;;;16.96;61.37
9110;BME280;4590;51.462;6.692;2023-05-21T06:57:43;101413.06;;;17.11;61.33
9110;BME280;4590;51.462;6.692;2023-05-21T07:00:09;101419.72;;;17.18;61.14
9110;BME280;4590;51.462;6.692;2023-05-21T07:02:35;101415.44;;;17.30;60.62
9110;BME280;4590;51.462;6.692;2023-05-21T07:05:01;101415.84;;;17.40;60.50
9110;BME280;4590;51.462;6.692;2023-05-21T07:07:26;101429.25;;;17.47;60.84
9110;BME280;4590;51.462;6.692;2023-05-21T07:09:52;101424.09;;;17.58;60.26
9110;BME280;4590;51.462;6.692;2023-05-21T07:12:20;101426.66;;;17.71;60.10
9110;BME280;4590;51.462;6.692;2023-05-21T07:14:46;101425.56;;;17.84;59.80
9110;BME280;4590;51.462;6.692;2023-05-21T07:17:14;101425.97;;;17.95;59.57
9110;BME280;4590;51.462;6.692;2023-05-21T07:19:39;101423.81;;;18.01;59.24
9110;BME280;4590;51.462;6.692;2023-05-21T07:22:05;101429.19;;;18.06;59.05
9110;BME280;4590;51.462;6.692;2023-05-21T07:24:31;101421.41;;;18.11;59.04
9110;BME280;4590;51.462;6.692;2023-05-21T07:26:56;101436.44;;;18.19;58.83
9110;BME280;4590;51.462;6.692;2023-05-21T07:29:22;101425.91;;;18.25;59.11
9110;BME280;4590;51.462;6.692;2023-05-21T07:35:24;101430.16;;;18.43;58.51
9110;BME280;4590;51.462;6.692;2023-05-21T07:44:40;101416.13;;;18.84;57.72
9110;BME280;4590;51.462;6.692;2023-05-21T07:47:06;101422.66;;;19.01;58.29
9110;BME280;4590;51.462;6.692;2023-05-21T07:49:31;101423.50;;;19.13;57.84
9110;BME280;4590;51.462;6.692;2023-05-21T07:55:35;101419.66;;;19.42;56.64
9110;BME280;4590;51.462;6.692;2023-05-21T08:01:15;101416.59;;;19.84;56.73
9110;BME280;4590;51.462;6.692;2023-05-21T08:03:41;101406.69;;;19.99;56.34
9110;BME280;4590;51.462;6.692;2023-05-21T08:06:09;101406.75;;;20.14;56.30
9110;BME280;4590;51.462;6.692;2023-05-21T08:08:43;101408.78;;;20.29;55.82
9110;BME280;4590;51.462;6.692;2023-05-21T08:11:47;101408.91;;;20.49;55.43
9110;BME280;4590;51.462;6.692;2023-05-21T08:14:13;101416.28;;;20.69;55.32
9110;BME280;4590;51.462;6.692;2023-05-21T08:16:38;101400.50;;;20.77;54.51
9110;BME280;4590;51.462;6.692;2023-05-21T08:19:04;101412.22;;;20.98;54.55
9110;BME280;4590;51.462;6.692;2023-05-21T08:21:30;101421.63;;;20.90;52.17
9110;BME280;4590;51.462;6.692;2023-05-21T08:23:56;101423.63;;;21.05;54.04
9110;BME280;4590;51.462;6.692;2023-05-21T08:26:24;101424.59;;;21.13;53.61
9110;BME280;4590;51.462;6.692;2023-05-21T08:28:51;101419.28;;;20.92;52.35
9110;BME280;4590;51.462;6.692;2023-05-21T08:31:21;101421.34;;;21.11;53.71
9110;BME280;4590;51.462;6.692;2023-05-21T08:34:07;101425.41;;;21.13;53.30
9110;BME280;4590;51.462;6.692;2023-05-21T08:36:51;101419.69;;;21.22;53.53
9110;BME280;4590;51.462;6.692;2023-05-21T08:39:18;101418.56;;;21.26;52.76
9110;BME280;4590;51.462;6.692;2023-05-21T08:41:44;101427.97;;;21.34;52.93
9110;BME280;4590;51.462;6.692;2023-05-21T08:44:14;101429.75;;;21.42;52.66
9110;BME280;4590;51.462;6.692;2023-05-21T08:46:41;101425.13;;;21.50;52.81
9110;BME280;4590;51.462;6.692;2023-05-21T08:49:11;101429.09;;;21.64;51.99
9110;BME280;4590;51.462;6.692;2023-05-21T08:56:51;101428.47;;;21.55;51.34
9110;BME280;4590;51.462;6.692;2023-05-21T08:59:18;101413.94;;;21.50;51.52
9110;BME280;4590;51.462;6.692;2023-05-21T09:01:45;101431.81;;;21.45;51.88
9110;BME280;4590;51.462;6.692;2023-05-21T09:04:14;101426.88;;;21.39;51.80
9110;BME280;4590;51.462;6.692;2023-05-21T09:06:40;101423.78;;;21.44;51.58
9110;BME280;4590;51.462;6.692;2023-05-21T09:09:09;101413.59;;;21.35;51.73
9110;BME280;4590;51.462;6.692;2023-05-21T09:11:38;101421.06;;;21.47;51.79
9110;BME280;4590;51.462;6.692;2023-05-21T09:14:08;101409.97;;;21.51;51.42
9110;BME280;4590;51.462;6.692;2023-05-21T09:16:35;101411.13;;;21.50;51.55
9110;BME280;4590;51.462;6.692;2023-05-21T09:19:01;101410.34;;;21.33;51.27
9110;BME280;4590;51.462;6.692;2023-05-21T09:21:31;101402.38;;;21.51;51.70
9110;BME280;4590;51.462;6.692;2023-05-21T09:23:59;101403.78;;;21.61;51.66
9110;BME280;4590;51.462;6.692;2023-05-21T09:26:26;101403.50;;;21.66;51.65
9110;BME280;4590;51.462;6.692;2023-05-21T09:28:55;101392.00;;;21.52;51.02
9110;BME280;4590;51.462;6.692;2023-05-21T09:31:22;101401.44;;;21.63;51.39
9110;BME280;4590;51.462;6.692;2023-05-21T09:33:48;101396.19;;;21.61;50.83
9110;BME280;4590;51.462;6.692;2023-05-21T09:36:19;101405.88;;;21.64;51.55
9110;BME280;4590;51.462;6.692;2023-05-21T09:39:26;101401.16;;;21.68;51.53
9110;BME280;4590;51.462;6.692;2023-05-21T09:41:54;101408.75;;;21.67;51.81
9110;BME280;4590;51.462;6.692;2023-05-21T09:44:22;101396.16;;;21.77;51.45
9110;BME280;4590;51.462;6.692;2023-05-21T09:46:48;101395.16;;;21.85;51.34
9110;BME280;4590;51.462;6.692;2023-05-21T09:49:22;101392.63;;;21.80;50.80
9110;BME280;4590;51.462;6.692;2023-05-21T09:51:49;101387.56;;;21.86;51.39
9110;BME280;4590;51.462;6.692;2023-05-21T09:54:14;101382.81;;;21.70;51.17
9110;BME280;4590;51.462;6.692;2023-05-21T09:56:41;101392.13;;;21.94;51.67
9110;BME280;4590;51.462;6.692;2023-05-21T09:59:08;101384.13;;;22.12;51.64
9110;BME280;4590;51.462;6.692;2023-05-21T10:01:37;101376.00;;;22.26;51.40
9110;BME280;4590;51.462;6.692;2023-05-21T10:04:08;101383.66;;;22.48;51.34
9110;BME280;4590;51.462;6.692;2023-05-21T10:06:43;101367.69;;;22.75;50.64
9110;BME280;4590;51.462;6.692;2023-05-21T10:09:53;101369.47;;;23.06;50.15
9110;BME280;4590;51.462;6.692;2023-05-21T10:12:33;101369.16;;;23.37;50.26
9110;BME280;4590;51.462;6.692;2023-05-21T10:22:46;101352.63;;;23.89;48.49
9110;BME280;4590;51.462;6.692;2023-05-21T10:25:53;101355.66;;;24.06;48.44
9110;BME280;4590;51.462;6.692;2023-05-21T10:32:26;101348.97;;;24.18;48.39
9110;BME280;4590;51.462;6.692;2023-05-21T10:46:18;101331.47;;;24.32;47.42
9110;BME280;4590;51.462;6.692;2023-05-21T10:52:49;101335.19;;;24.43;47.15
9110;BME280;4590;51.462;6.692;2023-05-21T10:56:08;101328.06;;;24.53;46.93
9110;BME280;4590;51.462;6.692;2023-05-21T12:35:31;101274.53;;;24.08;47.62
9110;BME280;4590;51.462;6.692;2023-05-21T12:39:11;101280.16;;;24.08;47.40
9110;BME280;4590;51.462;6.692;2023-05-21T13:08:52;101252.38;;;24.37;47.56
9110;BME280;4590;51.462;6.692;2023-05-21T13:55:21;101236.16;;;24.67;45.89
9110;BME280;4590;51.462;6.692;2023-05-21T13:57:46;101227.31;;;24.72;45.99
9110;BME280;4590;51.462;6.692;2023-05-21T14:00:32;101230.09;;;24.65;44.69
9110;BME280;4590;51.462;6.692;2023-05-21T14:02:57;101226.13;;;24.73;45.67
9110;BME280;4590;51.462;6.692;2023-05-21T14:05:23;101226.19;;;24.80;45.76
9110;BME280;4590;51.462;6.692;2023-05-21T14:07:48;101221.00;;;24.86;45.34
9110;BME280;4590;51.462;6.692;2023-05-21T14:10:15;101223.28;;;24.66;45.72
9110;BME280;4590;51.462;6.692;2023-05-21T14:12:41;101229.84;;;24.85;45.49
9110;BME280;4590;51.462;6.692;2023-05-21T14:15:06;101239.09;;;24.89;45.45
9110;BME280;4590;51.462;6.692;2023-05-21T14:17:32;101227.44;;;24.90;45.54
9110;BME280;4590;51.462;6.692;2023-05-21T14:19:58;101232.69;;;24.92;45.51
9110;BME280;4590;51.462;6.692;2023-05-21T14:22:23;101233.50;;;24.92;45.44
9110;BME280;4590;51.462;6.692;2023-05-21T14:24:49;101223.41;;;24.88;45.52
9110;BME280;4590;51.462;6.692;2023-05-21T14:27:16;101235.91;;;24.90;45.91
9110;BME280;4590;51.462;6.692;2023-05-21T14:29:42;101243.91;;;24.85;45.83
9110;BME280;4590;51.462;6.692;2023-05-21T14:32:07;101237.03;;;24.78;45.96
9110;BME280;4590;51.462;6.692;2023-05-21T14:34:35;101227.84;;;24.85;45.80
9110;BME280;4590;51.462;6.692;2023-05-21T14:37:02;101232.66;;;24.88;45.44
9110;BME280;4590;51.462;6.692;2023-05-21T14:39:28;101232.28;;;24.90;45.74
9110;BME280;4590;51.462;6.692;2023-05-21T14:41:55;101224.63;;;24.90;45.89
9110;BME280;4590;51.462;6.692;2023-05-21T14:44:52;101229.84;;;24.85;45.98
9110;BME280;4590;51.462;6.692;2023-05-21T14:47:18;101229.06;;;24.91;45.87
9110;BME280;4590;51.462;6.692;2023-05-21T14:49:43;101234.75;;;24.95;45.69
9110;BME280;4590;51.462;6.692;2023-05-21T14:52:09;101236.75;;;24.94;45.49
9110;BME280;4590;51.462;6.692;2023-05-21T14:54:35;101226.34;;;24.98;45.20
9110;BME280;4590;51.462;6.692;2023-05-21T14:57:01;101217.91;;;24.98;45.56
9110;BME280;4590;51.462;6.692;2023-05-21T14:59:26;101231.19;;;25.05;45.59
9110;BME280;4590;51.462;6.692;2023-05-21T15:07:32;101210.34;;;25.13;45.21
9110;BME280;4590;51.462;6.692;2023-05-21T15:10:04;101210.69;;;25.08;44.85
9110;BME280;4590;51.462;6.692;2023-05-21T15:12:59;101211.13;;;25.10;44.92
9110;BME280;4590;51.462;6.692;2023-05-21T15:15:25;101197.03;;;25.10;45.07
9110;BME280;4590;51.462;6.692;2023-05-21T15:17:53;101207.53;;;25.13;45.11
9110;BME280;4590;51.462;6.692;2023-05-21T15:20:24;101207.53;;;25.16;45.02
9110;BME280;4590;51.462;6.692;2023-05-21T15:22:51;101213.97;;;25.17;45.12
9110;BME280;4590;51.462;6.692;2023-05-21T15:25:18;101207.13;;;25.14;45.51
9110;BME280;4590;51.462;6.692;2023-05-21T15:27:44;101202.31;;;25.15;45.31
9110;BME280;4590;51.462;6.692;2023-05-21T15:30:11;101191.44;;;25.17;45.03
9110;BME280;4590;51.462;6.692;2023-05-21T15:32:39;101196.28;;;25.20;45.07
9110;BME280;4590;51.462;6.692;2023-05-21T15:35:15;101193.81;;;25.11;45.44
9110;BME280;4590;51.462;6.692;2023-05-21T15:37:41;101198.69;;;25.18;45.37
9110;BME280;4590;51.462;6.692;2023-05-21T15:40:09;101186.22;;;25.15;45.38
9110;BME280;4590;51.462;6.692;2023-05-21T15:42:34;101185.38;;;25.11;45.61
9110;BME280;4590;51.462;6.692;2023-05-21T15:45:00;101186.97;;;25.02;45.52
9110;BME280;4590;51.462;6.692;2023-05-21T15:47:31;101186.16;;;25.01;45.39
9110;BME280;4590;51.462;6.692;2023-05-21T15:49:56;101188.56;;;25.06;45.79
9110;BME280;4590;51.462;6.692;2023-05-21T15:52:24;101182.09;;;24.99;45.59
9110;BME280;4590;51.462;6.692;2023-05-21T15:54:49;101182.50;;;25.04;45.95
9110;BME280;4590;51.462;6.692;2023-05-21T15:57:14;101180.09;;;24.99;46.00
9110;BME280;4590;51.462;6.692;2023-05-21T15:59:40;101193.41;;;25.02;46.04
9110;BME280;4590;51.462;6.692;2023-05-21T16:02:06;101190.16;;;25.04;46.30
9110;BME280;4590;51.462;6.692;2023-05-21T16:04:32;101188.97;;;25.05;46.44
9110;BME280;4590;51.462;6.692;2023-05-21T16:07:00;101188.16;;;25.01;46.25
9110;BME280;4590;51.462;6.692;2023-05-21T16:09:25;101187.34;;;25.00;46.40
9110;BME280;4590;51.462;6.692;2023-05-21T16:11:50;101190.53;;;24.95;46.78
9110;BME280;4590;51.462;6.692;2023-05-21T16:14:19;101191.72;;;24.94;46.78
9110;BME280;4590;51.462;6.692;2023-05-21T16:16:44;101186.84;;;24.91;46.80
9110;BME280;4590;51.462;6.692;2023-05-21T16:19:10;101192.47;;;24.91;47.01
9110;BME280;4590;51.462;6.692;2023-05-21T16:21:35;101194.06;;;24.89;46.75
9110;BME280;4590;51.462;6.692;2023-05-21T16:24:00;101202.91;;;24.87;47.19
9110;BME280;4590;51.462;6.692;2023-05-21T16:26:27;101187.63;;;24.88;47.23
9110;BME280;4590;51.462;6.692;2023-05-21T16:28:52;101185.22;;;24.87;47.37
9110;BME280;4590;51.462;6.692;2023-05-21T16:31:18;101191.63;;;24.87;47.23
9110;BME280;4590;51.462;6.692;2023-05-21T16:33:43;101188.81;;;24.83;47.53
9110;BME280;4590;51.462;6.692;2023-05-21T16:36:09;101180.00;;;24.85;47.07
9110;BME280;4590;51.462;6.692;2023-05-21T16:38:34;101174.34;;;24.89;47.30
9110;BME280;4590;51.462;6.692;2023-05-21T16:41:00;101174.78;;;24.91;47.51
9110;BME280;4590;51.462;6.692;2023-05-21T16:43:25;101171.16;;;24.90;47.50
9110;BME280;4590;51.462;6.692;2023-05-21T16:45:50;101173.56;;;24.92;47.06
9110;BME280;4590;51.462;6.692;2023-05-21T16:48:17;101170.81;;;24.95;46.78
9110;BME280;4590;51.462;6.692;2023-05-21T16:50:42;101169.63;;;24.96;46.75
9110;BME280;4590;51.462;6.692;2023-05-21T16:53:23;101166.81;;;24.96;46.95
9110;BME280;4590;51.462;6.692;2023-05-21T16:55:49;101164.41;;;25.05;46.72
9110;BME280;4590;51.462;6.692;2023-05-21T16:58:14;101156.78;;;25.06;46.80
9110;BME280;4590;51.462;6.692;2023-05-21T17:00:39;101162.84;;;25.11;46.98
9110;BME280;4590;51.462;6.692;2023-05-21T17:03:05;101161.69;;;25.16;47.00
9110;BME280;4590;51.462;6.692;2023-05-21T17:05:30;101160.88;;;25.19;46.93
9110;BME280;4590;51.462;6.692;2023-05-21T17:07:55;101168.91;;;25.21;47.06
9110;BME280;4590;51.462;6.692;2023-05-21T17:10:22;101158.03;;;25.19;46.55
9110;BME280;4590;51.462;6.692;2023-05-21T17:12:48;101174.56;;;25.24;46.42
9110;BME280;4590;51.462;6.692;2023-05-21T17:15:13;101174.19;;;25.26;46.14
9110;BME280;4590;51.462;6.692;2023-05-21T17:17:40;101186.22;;;25.23;46.26
9110;BME280;4590;51.462;6.692;2023-05-21T17:20:06;101173.78;;;25.27;46.36
9110;BME280;4590;51.462;6.692;2023-05-21T17:22:31;101181.44;;;25.30;46.50
9110;BME280;4590;51.462;6.692;2023-05-21T17:24:57;101189.47;;;25.28;46.62
9110;BME280;4590;51.462;6.692;2023-05-21T17:27:23;101183.84;;;25.28;46.50
9110;BME280;4590;51.462;6.692;2023-05-21T17:29:48;101192.69;;;25.27;46.72
9110;BME280;4590;51.462;6.692;2023-05-21T17:32:13;101193.91;;;25.26;46.79